Time;durP1;ratioP1;P1;durP2;ratioP2;P2;SDS_P1;SDS_P2;PMS_P1;PMS_P2;Temp;Humidity;BMP_temperature;BMP_pressure;BME280_temperature;BME280_humidity;BME280_pressure;Samples;Min_cycle;Max_cycle;Signal;HPM_P1;HPM_P2
2023/12/12 00:00:27;;;;;;;1.05;0.40;;;;;;;1.66;100.00;100984.78;10411760;28;20049;-70
2023/12/12 00:05:28;;;;;;;0.63;0.20;;;;;;;1.64;100.00;100968.31;10412083;28;20037;-71
2023/12/12 00:10:29;;;;;;;1.55;0.35;;;;;;;1.82;100.00;101009.94;10411189;28;20150;-68
2023/12/12 00:15:30;;;;;;;1.05;0.30;;;;;;;1.57;100.00;100973.09;10383749;28;20096;-67
2023/12/12 00:20:31;;;;;;;1.02;0.30;;;;;;;1.95;100.00;101046.69;10369643;28;20053;-67
2023/12/12 00:25:32;;;;;;;3.15;0.55;;;;;;;1.53;100.00;100987.34;10369948;28;20447;-67
2023/12/12 00:30:33;;;;;;;0.60;0.20;;;;;;;1.59;100.00;101002.66;10370496;28;20060;-67
2023/12/12 00:35:33;;;;;;;0.73;0.28;;;;;;;1.90;100.00;101050.53;10370575;28;20451;-67
2023/12/12 00:40:34;;;;;;;2.42;0.45;;;;;;;1.88;100.00;101057.63;10369325;28;20041;-67
2023/12/12 00:45:35;;;;;;;0.82;0.30;;;;;;;1.83;100.00;101055.31;10369312;28;20033;-67
2023/12/12 00:50:36;;;;;;;0.77;0.30;;;;;;;1.74;100.00;101035.75;10368931;28;20072;-68
2023/12/12 00:55:37;;;;;;;0.88;0.35;;;;;;;1.79;100.00;101038.09;10370025;28;20053;-67
2023/12/12 01:00:38;;;;;;;1.55;0.40;;;;;;;1.75;100.00;101032.19;10368911;28;20504;-67
2023/12/12 01:05:38;;;;;;;1.98;0.40;;;;;;;1.72;100.00;101028.94;10368650;28;20048;-68
2023/12/12 01:10:39;;;;;;;1.35;0.20;;;;;;;1.39;100.00;100969.84;10369736;28;20042;-68
2023/12/12 01:15:40;;;;;;;1.83;0.40;;;;;;;1.69;100.00;101029.13;10367451;28;20071;-71
2023/12/12 01:20:41;;;;;;;1.20;0.20;;;;;;;1.60;100.00;101017.44;10368180;28;20038;-68
2023/12/12 01:25:42;;;;;;;0.80;0.25;;;;;;;1.48;100.00;100999.84;10368260;28;20378;-68
2023/12/12 01:30:42;;;;;;;1.38;0.22;;;;;;;1.67;100.00;101031.81;10367914;28;20050;-68
2023/12/12 01:35:43;;;;;;;1.50;0.52;;;;;;;1.37;100.00;100966.47;10393452;28;20128;-68
2023/12/12 01:40:44;;;;;;;1.70;0.40;;;;;;;1.60;100.00;101004.34;10408971;28;20041;-69
2023/12/12 01:45:45;;;;;;;1.02;0.30;;;;;;;1.57;100.00;100989.66;10409324;28;20045;-68
2023/12/12 01:50:46;;;;;;;0.45;0.20;;;;;;;1.49;100.00;100964.88;10407966;28;20064;-68
2023/12/12 01:55:49;;;;;;;0.82;0.20;;;;;;;1.65;100.00;100996.22;10408105;28;20041;-68
2023/12/12 02:00:51;;;;;;;1.00;0.25;;;;;;;1.67;100.00;100997.78;10408520;28;20125;-68
2023/12/12 02:05:58;;;;;;;1.05;0.50;;;;;;;1.62;100.00;100975.44;10407770;28;20048;-68
2023/12/12 02:10:59;;;;;;;2.17;0.32;;;;;;;1.42;100.00;100943.47;10396828;28;20088;-68
2023/12/12 02:16:00;;;;;;;3.55;0.63;;;;;;;1.46;100.00;100954.59;10378260;28;20081;-67
2023/12/12 02:21:01;;;;;;;0.50;0.20;;;;;;;1.67;100.00;100978.59;10367179;28;20037;-67
2023/12/12 02:26:03;;;;;;;6.72;0.60;;;;;;;1.69;100.00;100979.34;10367667;28;20049;-67
2023/12/12 02:31:04;;;;;;;4.03;0.93;;;;;;;1.71;100.00;100974.88;10366049;28;20141;-67
2023/12/12 02:36:05;;;;;;;3.45;0.57;;;;;;;1.60;100.00;100947.56;10366667;28;20143;-67
2023/12/12 02:41:06;;;;;;;2.88;0.60;;;;;;;1.67;100.00;100953.25;10366489;28;20561;-66
2023/12/12 02:46:06;;;;;;;3.47;0.70;;;;;;;1.52;100.00;100922.78;10372917;28;20140;-67
2023/12/12 02:51:07;;;;;;;4.03;0.60;;;;;;;1.68;100.00;100954.94;10380990;28;20069;-69
2023/12/12 02:56:08;;;;;;;2.35;0.68;;;;;;;1.57;100.00;100934.66;10406347;28;20044;-69
2023/12/12 03:01:12;;;;;;;0.85;0.30;;;;;;;1.66;100.00;100948.13;10405859;28;20061;-67
2023/12/12 03:06:12;;;;;;;1.93;0.50;;;;;;;1.67;100.00;100958.47;10427884;28;20036;-69
2023/12/12 03:11:13;;;;;;;7.05;0.60;;;;;;;1.66;100.00;100956.81;10579175;28;20406;-67
2023/12/12 03:16:14;;;;;;;4.40;0.95;;;;;;;1.63;100.00;100946.53;10578582;28;20063;-67
2023/12/12 03:21:15;;;;;;;0.20;0.10;;;;;;;1.55;100.00;100938.31;10575952;28;20082;-67
2023/12/12 03:26:15;;;;;;;1.73;0.40;;;;;;;1.44;100.00;100911.97;10572036;28;20560;-67
2023/12/12 03:31:16;;;;;;;1.73;0.35;;;;;;;1.57;100.00;100944.28;10527294;28;20040;-67
2023/12/12 03:36:17;;;;;;;1.67;0.13;;;;;;;1.52;100.00;100952.41;10386465;28;20132;-64
2023/12/12 03:41:18;;;;;;;0.25;0.08;;;;;;;1.47;100.00;100948.44;10405576;28;20041;-66
2023/12/12 03:46:20;;;;;;;1.27;0.30;;;;;;;1.26;100.00;100911.34;10405018;28;20041;-67
2023/12/12 03:51:21;;;;;;;1.15;0.20;;;;;;;1.20;100.00;100901.22;10410461;28;20474;-68
2023/12/12 03:56:22;;;;;;;1.95;0.50;;;;;;;1.48;100.00;100947.50;10411284;28;20045;-67
2023/12/12 04:01:22;;;;;;;1.73;0.28;;;;;;;1.16;100.00;100890.09;10411518;28;20041;-67
2023/12/12 04:06:23;;;;;;;2.45;0.30;;;;;;;1.45;100.00;100953.75;10411257;28;20527;-66
2023/12/12 04:11:24;;;;;;;1.02;0.30;;;;;;;1.43;100.00;100947.75;10412022;28;20049;-66
2023/12/12 04:16:25;;;;;;;0.88;0.30;;;;;;;1.51;100.00;100963.00;10412225;28;20178;-67
2023/12/12 04:21:25;;;;;;;4.10;0.30;;;;;;;1.56;100.00;100979.28;10412111;28;20045;-67
2023/12/12 04:26:30;;;;;;;1.55;0.30;;;;;;;1.48;100.00;100952.72;10409634;28;20041;-67
2023/12/12 04:31:30;;;;;;;;;;;;;;;1.60;100.00;100957.19;10410536;28;20140;-68
2023/12/12 04:36:33;;;;;;;1.42;0.28;;;;;;;1.48;100.00;100950.94;10409903;28;20370;-68
2023/12/12 04:41:39;;;;;;;1.25;0.20;;;;;;;1.50;100.00;100956.94;10410810;28;20077;-66
2023/12/12 04:46:40;;;;;;;2.67;0.32;;;;;;;1.46;100.00;100952.81;10410150;28;20038;-69
2023/12/12 04:51:40;;;;;;;1.45;0.17;;;;;;;1.24;100.00;100907.97;10410799;28;20065;-68
2023/12/12 04:56:41;;;;;;;0.63;0.22;;;;;;;1.40;100.00;100929.63;10403922;28;20056;-68
2023/12/12 05:01:43;;;;;;;0.90;0.20;;;;;;;1.50;100.00;100948.25;10409933;28;20069;-68
2023/12/12 05:06:44;;;;;;;0.88;0.28;;;;;;;1.54;100.00;100973.28;10409535;28;20037;-68
2023/12/12 05:11:44;;;;;;;0.50;0.20;;;;;;;1.21;100.00;100916.00;10409379;28;20424;-67
2023/12/12 05:16:45;;;;;;;1.17;0.17;;;;;;;1.45;100.00;100968.63;10409488;28;20037;-68
2023/12/12 05:21:46;;;;;;;1.50;0.30;;;;;;;1.41;100.00;100951.41;10409234;28;20046;-68
2023/12/12 05:26:46;;;;;;;1.65;0.20;;;;;;;1.41;100.00;100965.34;10408882;28;20615;-68
2023/12/12 05:31:47;;;;;;;0.30;0.10;;;;;;;1.39;100.00;100972.44;10408768;28;20085;-68
2023/12/12 05:36:48;;;;;;;0.20;0.10;;;;;;;1.33;100.00;100955.34;10408765;28;20045;-68
2023/12/12 05:41:49;;;;;;;1.55;0.10;;;;;;;1.34;100.00;100954.41;10409278;28;20041;-68
2023/12/12 05:46:50;;;;;;;0.57;0.13;;;;;;;1.32;100.00;100956.28;10408350;28;20161;-68
2023/12/12 05:51:51;;;;;;;1.88;0.13;;;;;;;1.35;100.00;100965.72;10408009;28;20096;-68
2023/12/12 05:56:52;;;;;;;0.73;0.10;;;;;;;1.37;100.00;100972.53;10408605;28;20069;-67
2023/12/12 06:01:53;;;;;;;0.47;0.10;;;;;;;1.36;100.00;100964.78;10408671;28;20417;-67
2023/12/12 06:06:53;;;;;;;1.77;0.10;;;;;;;1.00;100.00;100899.81;10408192;28;20044;-67
2023/12/12 06:11:54;;;;;;;0.45;0.10;;;;;;;1.37;100.00;100951.59;10406960;28;20113;-67
2023/12/12 06:16:55;;;;;;;0.75;0.20;;;;;;;1.41;100.00;100967.09;10407495;28;20041;-68
2023/12/12 06:21:56;;;;;;;0.57;0.10;;;;;;;1.38;100.00;100965.53;10408191;28;20546;-68
2023/12/12 06:26:57;;;;;;;0.90;0.10;;;;;;;1.39;100.00;100969.84;10407148;28;20089;-68
2023/12/12 06:31:58;;;;;;;0.22;0.10;;;;;;;1.37;100.00;100967.28;10406362;28;20049;-68
2023/12/12 06:36:58;;;;;;;0.20;0.00;;;;;;;1.33;100.00;100960.56;10406894;28;20048;-69
2023/12/12 06:41:59;;;;;;;0.40;0.05;;;;;;;1.07;100.00;100911.59;10407225;28;20033;-68
2023/12/12 06:47:00;;;;;;;0.52;0.13;;;;;;;1.32;100.00;100973.78;10407427;28;20065;-68
2023/12/12 06:52:01;;;;;;;0.95;0.20;;;;;;;1.21;100.00;100927.31;10407332;28;20091;-70
2023/12/12 06:57:03;;;;;;;1.13;0.30;;;;;;;1.03;100.00;100917.97;10406375;28;20045;-69
2023/12/12 07:02:04;;;;;;;1.08;0.17;;;;;;;1.28;100.00;100946.09;10406349;28;20041;-70
2023/12/12 07:07:05;;;;;;;1.23;0.30;;;;;;;0.98;100.00;100899.06;10407137;28;20094;-70
2023/12/12 07:12:06;;;;;;;0.70;0.10;;;;;;;1.36;100.00;100947.28;10405777;28;20462;-70
2023/12/12 07:17:07;;;;;;;1.38;0.13;;;;;;;1.39;100.00;100943.66;10405871;28;20104;-68
2023/12/12 07:22:08;;;;;;;2.13;0.30;;;;;;;1.42;100.00;100943.47;10407705;28;20037;-67
2023/12/12 07:27:09;;;;;;;1.48;0.22;;;;;;;1.49;100.00;100939.53;10413656;28;20396;-69
2023/12/12 07:32:09;;;;;;;1.02;0.40;;;;;;;1.20;100.00;100872.41;10413114;28;20041;-68
2023/12/12 07:37:10;;;;;;;0.93;0.30;;;;;;;1.51;100.00;100921.94;10412481;28;20050;-68
2023/12/12 07:42:11;;;;;;;0.35;0.17;;;;;;;1.51;100.00;100923.72;10412282;28;20033;-68
2023/12/12 07:47:12;;;;;;;0.30;0.03;;;;;;;1.14;100.00;100853.56;10413023;28;20041;-68
2023/12/12 07:52:12;;;;;;;0.85;0.10;;;;;;;1.28;100.00;100859.72;10412769;28;20066;-68
2023/12/12 07:57:13;;;;;;;1.83;0.30;;;;;;;1.56;100.00;100912.03;10411770;28;20044;-68
2023/12/12 08:02:14;;;;;;;0.80;0.10;;;;;;;1.60;100.00;100905.66;10412335;28;20089;-70
2023/12/12 08:07:15;;;;;;;3.38;0.17;;;;;;;1.64;100.00;100889.75;10411672;28;20055;-68
2023/12/12 08:12:16;;;;;;;2.30;0.50;;;;;;;1.68;100.00;100855.44;10412120;28;20053;-70
2023/12/12 08:17:17;;;;;;;1.80;0.50;;;;;;;1.73;100.00;100855.13;10411905;28;20037;-71
2023/12/12 08:22:18;;;;;;;1.75;0.68;;;;;;;1.77;100.00;100865.31;10411745;28;20045;-69
2023/12/12 08:27:18;;;;;;;2.20;0.40;;;;;;;1.85;100.00;100856.09;10410792;28;20064;-69
2023/12/12 08:32:19;;;;;;;0.75;0.22;;;;;;;1.82;100.00;100857.13;10411217;28;20067;-69
2023/12/12 08:37:20;;;;;;;4.75;0.70;;;;;;;1.87;100.00;100846.38;10411085;28;20073;-69
2023/12/12 08:42:21;;;;;;;1.23;0.40;;;;;;;1.82;100.00;100850.16;10410274;28;20409;-68
2023/12/12 08:47:21;;;;;;;2.90;0.20;;;;;;;1.78;100.00;100832.94;10410162;28;20130;-69
2023/12/12 08:52:22;;;;;;;1.08;0.20;;;;;;;1.81;100.00;100809.16;10411198;28;20114;-69
2023/12/12 08:57:23;;;;;;;1.60;0.57;;;;;;;1.89;100.00;100792.94;10409841;28;20527;-68
2023/12/12 09:02:24;;;;;;;1.73;0.77;;;;;;;1.94;100.00;100811.78;10410350;28;20455;-68
2023/12/12 09:07:25;;;;;;;3.50;0.60;;;;;;;1.70;100.00;100746.16;10410175;28;20098;-69
2023/12/12 09:12:26;;;;;;;2.83;1.40;;;;;;;1.88;100.00;100785.16;10409674;28;20077;-68
2023/12/12 09:17:27;;;;;;;1.55;0.38;;;;;;;1.40;100.00;100706.28;10409867;28;20076;-69
2023/12/12 09:22:27;;;;;;;0.63;0.10;;;;;;;2.04;100.00;100796.34;10409659;28;20072;-69
2023/12/12 09:27:28;;;;;;;2.47;0.15;;;;;;;2.05;100.00;100808.47;10409618;28;20041;-69
2023/12/12 09:32:29;;;;;;;0.20;0.10;;;;;;;2.05;100.00;100795.38;10409546;28;20102;-68
2023/12/12 09:37:30;;;;;;;2.72;0.20;;;;;;;2.00;100.00;100789.59;10408799;28;20093;-68
2023/12/12 09:42:34;;;;;;;1.85;0.10;;;;;;;1.96;100.00;100785.50;10408948;28;20045;-68
2023/12/12 09:47:35;;;;;;;0.55;0.10;;;;;;;2.04;100.00;100793.72;10407621;28;20124;-68
2023/12/12 09:52:37;;;;;;;0.82;0.17;;;;;;;1.78;100.00;100741.25;10406764;28;20144;-69
2023/12/12 09:57:38;;;;;;;1.38;0.10;;;;;;;1.93;100.00;100768.22;10408357;28;20045;-69
2023/12/12 10:02:39;;;;;;;0.60;0.25;;;;;;;1.97;100.00;100772.28;10408444;28;20515;-69
2023/12/12 10:07:42;;;;;;;0.63;0.10;;;;;;;1.94;100.00;100787.38;10408348;28;20049;-68
2023/12/12 10:12:43;;;;;;;1.10;0.20;;;;;;;1.93;100.00;100785.72;10408098;28;20041;-69
2023/12/12 10:17:43;;;;;;;0.77;0.20;;;;;;;1.56;100.00;100710.41;10408436;28;20038;-68
2023/12/12 10:22:46;;;;;;;3.30;0.32;;;;;;;1.59;100.00;100741.63;10407287;28;20048;-68
2023/12/12 10:27:47;;;;;;;0.10;0.00;;;;;;;1.86;100.00;100789.69;10407196;28;20049;-69
2023/12/12 10:32:53;;;;;;;1.33;0.28;;;;;;;1.92;100.00;100794.53;10407526;28;20064;-68
2023/12/12 10:37:53;;;;;;;0.30;0.10;;;;;;;1.88;100.00;100799.09;10408079;28;20041;-69
2023/12/12 10:42:55;;;;;;;0.88;0.20;;;;;;;1.76;100.00;100795.50;10407927;28;20037;-70
2023/12/12 10:47:59;;;;;;;1.05;0.17;;;;;;;1.52;100.00;100757.84;10407191;28;20052;-68
2023/12/12 10:53:03;;;;;;;;;;;;;;;1.81;100.00;100809.16;10407757;28;20061;-71
2023/12/12 10:58:05;;;;;;;0.35;0.10;;;;;;;1.70;100.00;100811.63;10411958;28;19925;-69
2023/12/12 11:03:06;;;;;;;0.52;0.03;;;;;;;1.67;100.00;100822.31;10414252;28;20041;-68
2023/12/12 11:08:07;;;;;;;0.50;0.10;;;;;;;1.61;100.00;100809.59;10413771;28;20045;-69
2023/12/12 11:13:08;;;;;;;0.13;0.00;;;;;;;1.66;100.00;100818.00;10413855;28;20049;-68
2023/12/12 11:18:09;;;;;;;1.13;0.10;;;;;;;1.28;100.00;100745.38;10413154;28;20041;-69
2023/12/12 11:23:10;;;;;;;0.47;0.10;;;;;;;1.57;100.00;100814.19;10412846;28;20050;-68
2023/12/12 11:28:11;;;;;;;0.70;0.20;;;;;;;1.59;100.00;100816.75;10413768;28;20041;-69
2023/12/12 11:33:12;;;;;;;0.22;0.10;;;;;;;1.51;100.00;100806.75;10413213;28;20077;-69
2023/12/12 11:38:28;;;;;;;1.42;0.13;;;;;;;1.57;100.00;100813.38;10412498;28;20065;-69
2023/12/12 11:43:29;;;;;;;0.10;0.00;;;;;;;1.30;100.00;100772.31;10412879;28;20045;-69
2023/12/12 11:48:30;;;;;;;0.28;0.10;;;;;;;1.53;100.00;100807.50;10412474;28;20041;-68
2023/12/12 11:53:44;;;;;;;0.75;0.20;;;;;;;1.57;100.00;100822.06;10412192;28;20049;-69
2023/12/12 11:58:45;;;;;;;;;;;;;;;1.57;100.00;100811.59;10412669;28;20098;-69
2023/12/12 12:03:46;;;;;;;1.23;0.30;;;;;;;1.41;100.00;100816.13;10411671;28;19942;-69
2023/12/12 12:08:49;;;;;;;0.70;0.20;;;;;;;1.46;100.00;100823.69;10410656;28;20568;-69
2023/12/12 12:13:49;;;;;;;0.50;0.20;;;;;;;1.50;100.00;100826.03;10411206;28;20098;-69
2023/12/12 12:18:50;;;;;;;1.45;0.22;;;;;;;1.43;100.00;100819.47;10383607;28;20520;-69
2023/12/12 12:23:54;;;;;;;0.70;0.17;;;;;;;1.36;100.00;100782.38;10389973;28;20056;-70
2023/12/12 12:28:55;;;;;;;1.08;0.20;;;;;;;0.94;100.00;100761.56;10380257;28;20037;-69
2023/12/12 12:33:56;;;;;;;2.05;0.17;;;;;;;1.29;100.00;100820.38;10378680;28;20045;-69
2023/12/12 12:39:04;;;;;;;3.17;0.10;;;;;;;1.23;100.00;100819.91;10395912;28;20496;-68
2023/12/12 12:44:05;;;;;;;1.23;0.28;;;;;;;0.82;100.00;100777.06;10392683;28;20405;-68
2023/12/12 12:49:06;;;;;;;1.42;0.35;;;;;;;1.08;100.00;100833.03;10400670;28;20060;-68
2023/12/12 12:54:07;;;;;;;2.33;0.10;;;;;;;1.04;100.00;100825.44;10360255;28;20046;-69
2023/12/12 12:59:07;;;;;;;1.63;0.30;;;;;;;0.99;100.00;100825.75;10347949;28;20053;-68
2023/12/12 13:04:11;;;;;;;0.95;0.28;;;;;;;0.86;100.00;100845.72;10359121;28;20498;-69
2023/12/12 13:09:17;;;;;;;0.70;0.22;;;;;;;0.71;100.00;100857.13;10361350;28;20046;-68
2023/12/12 13:14:18;;;;;;;2.10;0.47;;;;;;;0.30;100.00;100811.59;10346126;28;20030;-68
2023/12/12 13:19:19;;;;;;;0.13;0.05;;;;;;;-0.04;100.00;100765.72;10359231;28;20450;-69
2023/12/12 13:24:22;;;;;;;0.65;0.20;;;;;;;0.52;100.00;100878.28;10346224;28;20041;-68
2023/12/12 13:29:22;;;;;;;2.88;0.40;;;;;;;0.56;100.00;100870.16;10346896;28;20048;-69
2023/12/12 13:34:23;;;;;;;5.60;0.60;;;;;;;0.20;100.00;100847.03;10363789;28;20056;-69
2023/12/12 13:39:24;;;;;;;0.68;0.20;;;;;;;0.11;100.00;100826.66;10388540;28;20053;-70
2023/12/12 13:44:25;;;;;;;0.32;0.10;;;;;;;0.09;100.00;100823.28;10389537;28;20083;-68
2023/12/12 13:49:26;;;;;;;1.30;0.30;;;;;;;0.45;100.00;100889.09;10367572;28;20061;-69
2023/12/12 13:54:26;;;;;;;1.33;0.30;;;;;;;0.07;100.00;100814.72;10375980;28;20101;-70
2023/12/12 13:59:27;;;;;;;1.55;0.40;;;;;;;0.11;100.00;100826.66;10408530;28;20457;-70
2023/12/12 14:04:29;;;;;;;1.20;0.40;;;;;;;0.27;100.00;100864.06;10408486;28;20042;-69
2023/12/12 14:09:29;;;;;;;2.72;0.30;;;;;;;0.17;100.00;100829.75;10406970;28;20048;-70
2023/12/12 14:14:31;;;;;;;3.95;0.50;;;;;;;0.04;100.00;100848.84;10409514;28;20037;-69
2023/12/12 14:19:32;;;;;;;1.63;0.40;;;;;;;0.10;100.00;100843.28;10407718;28;20409;-68
2023/12/12 14:24:33;;;;;;;0.47;0.28;;;;;;;0.07;100.00;100867.81;10381590;28;20040;-69
2023/12/12 14:29:34;;;;;;;2.08;0.77;;;;;;;-0.09;100.00;100852.19;10376507;28;20054;-69
2023/12/12 14:34:34;;;;;;;0.70;0.20;;;;;;;-0.30;100.00;100863.81;10368260;28;20438;-68
2023/12/12 14:39:35;;;;;;;1.38;0.50;;;;;;;-0.46;100.00;100869.03;10328949;28;20066;-69
2023/12/12 14:44:37;;;;;;;1.55;0.22;;;;;;;-0.89;100.00;100810.56;10403457;28;20070;-68
2023/12/12 14:49:37;;;;;;;0.88;0.22;;;;;;;-0.64;100.00;100860.44;10423334;28;20085;-69
2023/12/12 14:54:43;;;;;;;0.75;0.38;;;;;;;-0.64;100.00;100857.84;10530514;28;20506;-68
2023/12/12 14:59:43;;;;;;;1.45;0.40;;;;;;;-0.66;100.00;100857.06;10579693;28;20156;-68
2023/12/12 15:04:44;;;;;;;2.38;0.50;;;;;;;-0.75;100.00;100848.00;10578816;28;20114;-68
2023/12/12 15:09:45;;;;;;;1.30;0.40;;;;;;;-0.90;100.00;100821.88;10579839;28;20050;-69
2023/12/12 15:14:46;;;;;;;0.73;0.22;;;;;;;-0.90;100.00;100825.34;10578894;28;20130;-69
2023/12/12 15:19:47;;;;;;;1.48;0.50;;;;;;;-0.90;100.00;100847.97;10578950;28;20118;-69
2023/12/12 15:24:48;;;;;;;2.03;0.30;;;;;;;-1.05;100.00;100828.75;10579582;28;20039;-69
2023/12/12 15:29:53;;;;;;;4.55;0.50;;;;;;;-1.26;100.00;100805.50;10578188;28;20130;-69
2023/12/12 15:34:55;;;;;;;2.05;0.40;;;;;;;-1.06;100.00;100861.81;10578950;28;20035;-69
2023/12/12 15:40:00;;;;;;;2.75;0.57;;;;;;;-1.75;100.00;100735.16;10577729;28;20043;-69
2023/12/12 15:45:02;;;;;;;0.73;0.30;;;;;;;-1.13;100.00;100847.44;10519645;28;20056;-70
2023/12/12 15:50:05;;;;;;;2.03;0.40;;;;;;;-1.15;100.00;100844.06;10378702;28;20066;-69
2023/12/12 15:55:07;;;;;;;6.18;3.30;;;;;;;-1.43;100.00;100816.84;10393750;28;20397;-68
2023/12/12 16:00:12;;;;;;;1.90;0.85;;;;;;;-1.23;100.00;100849.66;10411664;28;20550;-69
2023/12/12 16:05:13;;;;;;;2.53;0.60;;;;;;;-1.69;100.00;100805.16;10384482;28;20041;-68
2023/12/12 16:10:14;;;;;;;1.55;0.50;;;;;;;-1.40;100.00;100849.72;10372169;28;20501;-68
2023/12/12 16:15:15;;;;;;;3.33;0.93;;;;;;;-1.40;100.00;100834.09;10385344;28;20042;-68
2023/12/12 16:20:16;;;;;;;1.60;0.70;;;;;;;-1.45;100.00;100849.94;10411885;28;20476;-68
2023/12/12 16:25:17;;;;;;;3.67;0.90;;;;;;;-1.45;100.00;100838.69;10411690;28;20036;-67
2023/12/12 16:30:19;;;;;;;3.10;0.90;;;;;;;-1.51;100.00;100813.78;10411841;28;20393;-67
2023/12/12 16:35:23;;;;;;;1.83;0.70;;;;;;;-1.46;100.00;100835.25;10411416;28;20045;-68
2023/12/12 16:40:24;;;;;;;0.85;0.40;;;;;;;-1.56;100.00;100802.75;10411003;28;20037;-68
2023/12/12 16:45:26;;;;;;;5.75;0.75;;;;;;;-1.56;100.00;100823.59;10409732;28;20428;-69
2023/12/12 16:50:27;;;;;;;2.75;0.70;;;;;;;-1.97;100.00;100763.22;10408620;28;20461;-69
2023/12/12 16:55:29;;;;;;;4.57;0.68;;;;;;;-1.63;100.00;100823.06;10411150;28;20040;-68
2023/12/12 17:00:30;;;;;;;4.95;0.90;;;;;;;-1.55;100.00;100834.88;10402365;28;20030;-69
2023/12/12 17:05:32;;;;;;;1.67;0.60;;;;;;;-1.67;100.00;100805.94;10405304;28;20037;-68
2023/12/12 17:10:34;;;;;;;2.17;0.70;;;;;;;-1.68;100.00;100812.03;10378912;28;20050;-67
2023/12/12 17:15:35;;;;;;;6.63;2.50;;;;;;;-2.01;100.00;100772.91;10396999;28;20045;-69
2023/12/12 17:20:36;;;;;;;2.65;0.75;;;;;;;-1.81;100.00;100808.38;10385506;28;20042;-68
2023/12/12 17:25:36;;;;;;;3.75;0.85;;;;;;;-1.89;100.00;100805.31;10390075;28;20042;-68
2023/12/12 17:30:37;;;;;;;1.45;0.52;;;;;;;-2.25;100.00;100745.53;10373944;28;20046;-69
2023/12/12 17:35:39;;;;;;;1.73;0.55;;;;;;;-2.08;100.00;100784.56;10407738;28;20439;-68
2023/12/12 17:40:43;;;;;;;2.60;0.93;;;;;;;-2.18;100.00;100767.75;10395075;28;20038;-68
2023/12/12 17:45:46;;;;;;;2.67;0.82;;;;;;;-2.17;100.00;100785.03;10360198;28;20552;-67
2023/12/12 17:50:47;;;;;;;2.13;0.80;;;;;;;-2.08;100.00;100781.97;10372449;28;20383;-67
2023/12/12 17:55:48;;;;;;;3.25;0.70;;;;;;;-2.04;100.00;100787.84;10367785;28;20505;-68
2023/12/12 18:00:49;;;;;;;2.20;0.50;;;;;;;-2.76;100.00;100676.00;10368312;28;20042;-67
2023/12/12 18:05:51;;;;;;;2.67;0.70;;;;;;;-2.05;100.00;100789.63;10366864;28;20046;-67
2023/12/12 18:10:52;;;;;;;2.13;0.30;;;;;;;-2.09;100.00;100778.53;10366914;28;20046;-67
2023/12/12 18:15:52;;;;;;;1.55;0.47;;;;;;;-2.83;100.00;100679.84;10367270;28;20030;-68
2023/12/12 18:20:53;;;;;;;3.10;0.68;;;;;;;-2.15;100.00;100783.22;10367916;28;20072;-68
2023/12/12 18:25:54;;;;;;;2.00;0.73;;;;;;;-2.22;100.00;100774.84;10367410;28;20038;-67
2023/12/12 18:30:55;;;;;;;1.92;0.40;;;;;;;-2.16;100.00;100784.09;10366314;28;20085;-69
2023/12/12 18:35:56;;;;;;;2.40;0.40;;;;;;;-2.25;100.00;100768.94;10366959;28;20072;-68
2023/12/12 18:40:57;;;;;;;4.30;1.10;;;;;;;-2.20;100.00;100774.78;10366477;28;20042;-68
2023/12/12 18:45:57;;;;;;;3.08;0.95;;;;;;;-2.30;100.00;100746.59;10377848;28;20493;-68
2023/12/12 18:50:58;;;;;;;3.53;1.00;;;;;;;-2.16;100.00;100750.25;10366408;28;20417;-68
2023/12/12 18:55:59;;;;;;;1.05;0.55;;;;;;;-2.25;100.00;100758.53;10365809;28;20042;-68
2023/12/12 19:01:00;;;;;;;1.83;0.80;;;;;;;-2.28;100.00;100741.31;10365996;28;20049;-68
2023/12/12 19:06:02;;;;;;;1.98;0.85;;;;;;;-2.38;100.00;100720.13;10366021;28;20048;-68
2023/12/12 19:11:03;;;;;;;0.88;0.30;;;;;;;-2.30;100.00;100714.53;10365238;28;20065;-68
2023/12/12 19:16:05;;;;;;;1.45;0.50;;;;;;;-2.31;100.00;100729.28;10371931;28;20041;-68
2023/12/12 19:21:06;;;;;;;2.90;0.68;;;;;;;-2.31;100.00;100733.66;10413805;28;20081;-68
2023/12/12 19:26:07;;;;;;;3.97;0.70;;;;;;;-2.34;100.00;100733.81;10413054;28;20042;-68
2023/12/12 19:31:08;;;;;;;3.20;0.50;;;;;;;-2.66;100.00;100697.22;10413317;28;20099;-67
2023/12/12 19:36:09;;;;;;;3.75;0.80;;;;;;;-2.24;100.00;100749.78;10412732;28;20075;-68
2023/12/12 19:41:10;;;;;;;1.85;0.57;;;;;;;-2.36;100.00;100739.09;10412947;28;20056;-68
2023/12/12 19:46:11;;;;;;;7.30;2.40;;;;;;;-2.37;100.00;100745.19;10413121;28;20485;-68
2023/12/12 19:51:12;;;;;;;9.98;4.00;;;;;;;-2.50;100.00;100717.28;10413351;28;20085;-68
2023/12/12 19:56:12;;;;;;;14.13;5.95;;;;;;;-2.70;100.00;100672.28;10411929;28;20041;-68
2023/12/12 20:01:13;;;;;;;6.72;3.17;;;;;;;-2.30;100.00;100728.38;10411899;28;20417;-68
2023/12/12 20:06:14;;;;;;;5.55;2.13;;;;;;;-2.31;100.00;100715.44;10412366;28;20041;-68
2023/12/12 20:11:15;;;;;;;5.90;2.65;;;;;;;-2.34;100.00;100732.03;10411831;28;20195;-67
2023/12/12 20:16:19;;;;;;;5.65;2.05;;;;;;;-2.30;100.00;100743.16;10412527;28;20203;-68
2023/12/12 20:21:23;;;;;;;3.13;1.48;;;;;;;-2.28;100.00;100735.25;10405201;28;20401;-68
2023/12/12 20:26:24;;;;;;;4.38;1.52;;;;;;;-2.53;100.00;100702.66;10394992;28;20544;-67
2023/12/12 20:31:25;;;;;;;1.25;0.50;;;;;;;-2.34;100.00;100721.63;10410320;28;20052;-68
2023/12/12 20:36:27;;;;;;;2.25;0.70;;;;;;;-2.65;100.00;100674.66;10411234;28;20041;-68
2023/12/12 20:41:27;;;;;;;2.15;0.43;;;;;;;-2.34;100.00;100715.59;10410509;28;20042;-68
2023/12/12 20:46:28;;;;;;;1.63;0.47;;;;;;;-2.24;100.00;100711.63;10410406;28;20042;-68
2023/12/12 20:51:31;;;;;;;1.50;0.40;;;;;;;-2.26;100.00;100707.41;10410107;28;20147;-68
2023/12/12 20:56:33;;;;;;;1.10;0.38;;;;;;;-2.25;100.00;100704.72;10410610;28;20074;-67
2023/12/12 21:01:34;;;;;;;1.92;0.60;;;;;;;-2.26;100.00;100671.81;10409959;28;20037;-68
2023/12/12 21:06:38;;;;;;;0.90;0.20;;;;;;;-2.24;100.00;100679.53;10410313;28;20041;-68
2023/12/12 21:11:39;;;;;;;1.25;0.40;;;;;;;-2.25;100.00;100673.50;10410073;28;20400;-68
2023/12/12 21:16:39;;;;;;;1.00;0.20;;;;;;;-2.25;100.00;100657.88;10410175;28;20094;-68
2023/12/12 21:21:41;;;;;;;0.77;0.20;;;;;;;-2.24;100.00;100672.59;10409707;28;20557;-67
2023/12/12 21:26:43;;;;;;;1.90;0.50;;;;;;;-2.25;100.00;100664.84;10409236;28;20042;-67
2023/12/12 21:31:43;;;;;;;3.22;0.22;;;;;;;-2.27;100.00;100666.69;10409109;28;20042;-68
2023/12/12 21:36:44;;;;;;;1.58;0.35;;;;;;;-2.30;100.00;100673.75;10410020;28;20472;-68
2023/12/12 21:41:45;;;;;;;3.13;0.17;;;;;;;-2.30;100.00;100675.50;10408493;28;20029;-67
2023/12/12 21:46:46;;;;;;;0.68;0.25;;;;;;;-2.31;100.00;100674.63;10409060;28;20041;-67
2023/12/12 21:51:47;;;;;;;1.05;0.30;;;;;;;-2.32;100.00;100672.97;10408538;28;20067;-67
2023/12/12 21:56:48;;;;;;;1.05;0.20;;;;;;;-2.28;100.00;100675.41;10408302;28;20098;-67
2023/12/12 22:01:48;;;;;;;1.55;0.30;;;;;;;-2.35;100.00;100667.91;10409292;28;20421;-68
2023/12/12 22:06:50;;;;;;;2.03;0.57;;;;;;;-2.44;100.00;100657.16;10408388;28;20034;-67
2023/12/12 22:11:51;;;;;;;2.53;0.40;;;;;;;-2.33;100.00;100676.50;10408330;28;20481;-67
2023/12/12 22:16:53;;;;;;;1.42;0.20;;;;;;;-2.84;100.00;100602.78;10408293;28;20519;-67
2023/12/12 22:21:54;;;;;;;1.73;0.25;;;;;;;-2.79;100.00;100621.56;10407763;28;20484;-68
2023/12/12 22:26:55;;;;;;;2.10;0.20;;;;;;;-2.59;100.00;100656.16;10408145;28;20041;-67
2023/12/12 22:31:55;;;;;;;1.88;0.43;;;;;;;-2.86;100.00;100619.34;10407167;28;20045;-68
2023/12/12 22:36:58;;;;;;;1.83;0.30;;;;;;;-2.39;100.00;100684.63;10398802;28;20064;-68
2023/12/12 22:41:59;;;;;;;2.55;0.28;;;;;;;-2.45;100.00;100668.44;10403395;28;20049;-67
2023/12/12 22:47:00;;;;;;;0.75;0.30;;;;;;;-2.42;100.00;100692.56;10407378;28;20045;-68
2023/12/12 22:52:01;;;;;;;1.98;0.30;;;;;;;-2.33;100.00;100699.09;10406162;28;20093;-67
2023/12/12 22:57:02;;;;;;;1.40;0.40;;;;;;;-2.35;100.00;100693.09;10406697;28;20114;-67